Terminal Aerodrome Forecast
Issued by NWS

Home | Current Version | Previous Version | Text Only | Print | Product List | Glossary On
Versions: 1 2 3 4 5 6 7 8 9 10 11 12 13
000
FTUS42 KJAX 262300
TAFCRG
TAF
KCRG 262321Z 2700/2724 03004KT P6SM BKN035 BKN250
     FM270500 00000KT 6SM BR BKN035
      TEMPO 2708/2712 4SM BR
     FM271400 06008KT P6SM SCT030 BKN060=

USA.gov is the U.S. government's official web portal to all federal, state and local government web resources and services.